createdAt,value
2022-12-26T00:01:37.740Z,8.30
2022-12-26T00:04:06.657Z,4.80
2022-12-26T00:06:55.290Z,3.50
2022-12-26T00:09:23.671Z,3.85
2022-12-26T00:11:54.993Z,4.13
2022-12-26T00:14:23.790Z,3.20
2022-12-26T00:16:52.535Z,5.18
2022-12-26T00:19:21.248Z,3.70
2022-12-26T00:21:49.811Z,3.90
2022-12-26T00:24:18.512Z,3.42
2022-12-26T00:26:46.897Z,3.53
2022-12-26T00:29:15.508Z,3.60
2022-12-26T00:31:44.648Z,3.33
2022-12-26T00:34:13.532Z,3.65
2022-12-26T00:36:42.501Z,3.28
2022-12-26T00:39:14.544Z,3.35
2022-12-26T00:41:43.094Z,3.70
2022-12-26T00:44:11.640Z,3.50
2022-12-26T00:46:40.312Z,3.58
2022-12-26T00:49:08.948Z,3.22
2022-12-26T00:51:37.544Z,3.90
2022-12-26T00:54:05.959Z,4.32
2022-12-26T00:56:34.534Z,3.78
2022-12-26T00:59:03.172Z,3.58
2022-12-26T01:01:32.704Z,3.65
2022-12-26T01:04:01.922Z,3.88
2022-12-26T01:06:30.529Z,3.65
2022-12-26T01:09:00.829Z,3.92
2022-12-26T01:11:41.737Z,4.05
2022-12-26T01:14:12.863Z,4.10
2022-12-26T01:16:42.780Z,4.05
2022-12-26T01:19:12.540Z,4.30
2022-12-26T01:21:41.243Z,4.30
2022-12-26T01:24:09.993Z,4.40
2022-12-26T01:26:38.959Z,3.90
2022-12-26T01:29:07.725Z,3.95
2022-12-26T01:31:36.507Z,4.25
2022-12-26T01:34:05.131Z,4.75
2022-12-26T01:36:33.529Z,4.65
2022-12-26T01:39:01.555Z,5.25
2022-12-26T01:41:31.669Z,4.93
2022-12-26T01:44:03.500Z,4.70
2022-12-26T01:46:46.883Z,4.40
2022-12-26T01:49:27.314Z,4.90
2022-12-26T01:52:00.104Z,4.63
2022-12-26T01:54:39.491Z,4.30
2022-12-26T01:57:22.364Z,4.55
2022-12-26T01:59:52.573Z,4.00
2022-12-26T02:02:22.807Z,4.65
2022-12-26T02:05:11.579Z,4.20
2022-12-26T02:07:43.841Z,4.47
2022-12-26T02:10:19.491Z,5.05
2022-12-26T02:12:48.432Z,4.57
2022-12-26T02:15:18.197Z,5.13
2022-12-26T02:17:46.814Z,5.85
2022-12-26T02:20:30.598Z,5.43
2022-12-26T02:23:33.079Z,4.43
2022-12-26T02:26:42.453Z,5.38
2022-12-26T02:29:32.006Z,5.20
2022-12-26T02:32:18.259Z,5.70
2022-12-26T02:35:01.388Z,6.03
2022-12-26T02:38:08.684Z,5.32
2022-12-26T02:41:16.624Z,4.65
2022-12-26T02:44:29.425Z,5.55
2022-12-26T02:47:16.578Z,5.00
2022-12-26T02:50:11.784Z,5.35
2022-12-26T02:53:38.158Z,3.65
2022-12-26T02:56:36.154Z,3.53
2022-12-26T03:00:01.475Z,3.78
2022-12-26T03:02:55.532Z,3.83
2022-12-26T03:08:40.193Z,3.00
2022-12-26T03:11:26.485Z,3.78
2022-12-26T03:13:55.699Z,3.67
2022-12-26T03:16:43.861Z,3.53
2022-12-26T03:19:14.086Z,2.75
2022-12-26T03:21:45.365Z,3.13
2022-12-26T03:24:16.523Z,2.78
2022-12-26T03:26:55.101Z,3.28
2022-12-26T03:29:43.718Z,3.40
2022-12-26T03:32:13.602Z,3.28
2022-12-26T03:34:44.873Z,4.25
2022-12-26T03:37:47.921Z,3.20
2022-12-26T03:40:51.305Z,3.13
2022-12-26T03:43:59.774Z,3.70
2022-12-26T03:47:13.234Z,3.55
2022-12-26T03:50:07.273Z,3.70
2022-12-26T03:56:26.083Z,2.80
2022-12-26T03:59:35.015Z,3.47
2022-12-26T04:02:27.579Z,3.55
2022-12-26T04:05:16.185Z,4.82
2022-12-26T04:08:16.517Z,4.07
2022-12-26T04:11:09.862Z,4.05
2022-12-26T04:14:13.572Z,5.05
2022-12-26T04:17:10.024Z,4.85
2022-12-26T04:20:04.287Z,5.35
2022-12-26T04:23:00.627Z,5.60
2022-12-26T04:25:51.684Z,5.05
2022-12-26T04:28:43.007Z,5.22
2022-12-26T04:31:37.582Z,4.75
2022-12-26T04:34:28.119Z,4.68
2022-12-26T04:37:21.035Z,5.82
2022-12-26T04:40:10.703Z,5.78
2022-12-26T04:42:58.051Z,5.32
2022-12-26T04:45:27.192Z,7.22
2022-12-26T04:48:14.181Z,5.68
2022-12-26T04:50:53.392Z,5.63
2022-12-26T04:53:23.014Z,5.05
2022-12-26T04:55:51.584Z,6.63
2022-12-26T04:58:19.934Z,6.82
2022-12-26T05:00:49.257Z,6.07
2022-12-26T05:03:36.230Z,5.40
2022-12-26T05:06:23.301Z,6.05
2022-12-26T05:09:10.603Z,6.10
2022-12-26T05:11:40.003Z,6.75
2022-12-26T05:14:08.596Z,6.45
2022-12-26T05:16:55.698Z,6.72
2022-12-26T05:19:41.777Z,5.25
2022-12-26T05:22:31.634Z,6.15
2022-12-26T05:25:18.177Z,6.15
2022-12-26T05:28:05.223Z,6.40
2022-12-26T05:30:33.809Z,6.30
2022-12-26T05:33:20.769Z,5.75
2022-12-26T05:35:49.363Z,6.45
2022-12-26T05:38:17.883Z,6.38
2022-12-26T05:40:46.599Z,5.60
2022-12-26T05:43:15.204Z,6.75
2022-12-26T05:45:43.578Z,5.35
2022-12-26T05:48:12.193Z,6.00
2022-12-26T05:50:40.838Z,4.72
2022-12-26T05:53:09.502Z,5.25
2022-12-26T05:55:38.470Z,5.57
2022-12-26T05:58:07.136Z,4.80
2022-12-26T06:00:35.613Z,4.93
2022-12-26T06:03:04.352Z,4.82
2022-12-26T06:05:33.105Z,4.72
2022-12-26T06:08:01.482Z,5.55
2022-12-26T06:10:31.049Z,5.40
2022-12-26T06:13:02.976Z,5.28
2022-12-26T06:15:31.617Z,5.30
2022-12-26T06:18:00.241Z,4.70
2022-12-26T06:20:28.871Z,4.97
2022-12-26T06:22:57.499Z,5.45
2022-12-26T06:25:26.075Z,5.05
2022-12-26T06:27:54.694Z,4.50
2022-12-26T06:30:23.086Z,5.50
2022-12-26T06:32:51.638Z,5.25
2022-12-26T06:35:20.052Z,2.67
2022-12-26T06:37:48.666Z,3.58
2022-12-26T06:40:17.308Z,4.45
2022-12-26T06:42:45.915Z,4.30
2022-12-26T06:45:14.542Z,3.95
2022-12-26T06:47:43.146Z,3.83
2022-12-26T06:50:11.584Z,4.88
2022-12-26T06:52:40.298Z,4.13
2022-12-26T06:55:09.245Z,3.85
2022-12-26T06:57:37.607Z,3.85
2022-12-26T07:00:07.149Z,3.70
2022-12-26T07:02:35.918Z,3.13
2022-12-26T07:05:04.473Z,4.00
2022-12-26T07:07:33.138Z,3.15
2022-12-26T07:10:01.703Z,3.70
2022-12-26T07:12:30.330Z,3.90
2022-12-26T07:15:01.640Z,4.22
2022-12-26T07:17:30.684Z,3.55
2022-12-26T07:19:59.289Z,3.33
2022-12-26T07:22:27.867Z,3.35
2022-12-26T07:24:56.500Z,3.90
2022-12-26T07:27:24.875Z,3.58
2022-12-26T07:29:53.588Z,3.35
2022-12-26T07:32:22.301Z,3.70
2022-12-26T07:34:50.869Z,3.03
2022-12-26T07:37:20.327Z,4.28
2022-12-26T07:39:51.291Z,3.60
2022-12-26T07:42:23.782Z,3.53
2022-12-26T07:44:52.402Z,3.88
2022-12-26T07:47:21.044Z,3.22
2022-12-26T07:49:49.959Z,3.80
2022-12-26T07:52:18.872Z,3.83
2022-12-26T07:54:50.702Z,3.75
2022-12-26T08:01:55.431Z,3.08
2022-12-26T08:04:24.742Z,3.58
2022-12-26T08:06:53.233Z,3.30
2022-12-26T08:09:21.794Z,3.35
2022-12-26T08:11:50.385Z,3.25
2022-12-26T08:14:19.464Z,3.33
2022-12-26T08:16:51.631Z,3.67
2022-12-26T08:19:22.108Z,3.75
2022-12-26T08:21:50.703Z,3.75
2022-12-26T08:24:19.238Z,3.33
2022-12-26T08:26:47.727Z,4.00
2022-12-26T08:29:16.428Z,3.72
2022-12-26T08:31:45.079Z,3.85
2022-12-26T08:34:14.677Z,3.47
2022-12-26T08:36:43.441Z,4.10
2022-12-26T08:39:12.895Z,4.20
2022-12-26T08:41:41.444Z,4.25
2022-12-26T08:44:28.024Z,3.97
2022-12-26T08:46:57.160Z,4.75
2022-12-26T08:49:25.704Z,3.92
2022-12-26T08:51:54.663Z,3.67
2022-12-26T08:54:23.157Z,3.92
2022-12-26T08:56:51.729Z,3.58
2022-12-26T08:59:20.441Z,3.90
2022-12-26T09:01:49.523Z,3.85
2022-12-26T09:04:18.214Z,4.20
2022-12-26T09:06:46.785Z,3.30
2022-12-26T09:09:15.500Z,3.88
2022-12-26T09:11:44.583Z,3.75
2022-12-26T09:14:13.632Z,3.90
2022-12-26T09:16:50.873Z,3.80
2022-12-26T09:19:21.274Z,4.07
2022-12-26T09:21:50.981Z,3.97
2022-12-26T09:24:20.174Z,4.30
2022-12-26T09:26:48.668Z,4.25
2022-12-26T09:29:17.220Z,3.47
2022-12-26T09:31:45.596Z,4.00
2022-12-26T09:34:14.053Z,3.80
2022-12-26T09:36:42.640Z,4.05
2022-12-26T09:39:13.098Z,3.38
2022-12-26T09:41:49.723Z,4.05
2022-12-26T09:44:29.944Z,3.60
2022-12-26T09:47:16.673Z,4.07
2022-12-26T09:49:50.767Z,3.65
2022-12-26T09:52:45.291Z,4.55
2022-12-26T09:55:37.261Z,4.07
2022-12-26T09:58:37.289Z,3.65
2022-12-26T10:01:12.735Z,3.33
2022-12-26T10:03:50.124Z,3.67
2022-12-26T10:06:20.284Z,3.67
2022-12-26T10:09:13.545Z,3.95
2022-12-26T10:12:02.703Z,3.53
2022-12-26T10:14:47.531Z,3.67
2022-12-26T10:17:29.348Z,4.55
2022-12-26T10:20:18.168Z,3.88
2022-12-26T10:23:12.978Z,3.30
2022-12-26T10:26:10.414Z,4.13
2022-12-26T10:28:48.467Z,3.92
2022-12-26T10:32:02.463Z,3.60
2022-12-26T10:34:47.192Z,3.65
2022-12-26T10:37:32.306Z,3.35
2022-12-26T10:40:19.293Z,4.10
2022-12-26T10:42:54.309Z,4.10
2022-12-26T10:45:44.625Z,4.22
2022-12-26T10:48:15.560Z,4.40
2022-12-26T10:50:49.899Z,4.85
2022-12-26T10:53:18.862Z,4.18
2022-12-26T10:55:47.470Z,4.60
2022-12-26T10:58:34.542Z,4.40
2022-12-26T11:01:40.684Z,4.28
2022-12-26T11:04:31.399Z,4.97
2022-12-26T11:07:11.841Z,4.13
2022-12-26T11:09:42.742Z,4.57
2022-12-26T11:12:32.701Z,4.18
2022-12-26T11:15:08.129Z,4.65
2022-12-26T11:17:44.695Z,5.13
2022-12-26T11:20:29.243Z,5.18
2022-12-26T11:23:30.732Z,5.05
2022-12-26T11:26:01.469Z,5.38
2022-12-26T11:28:36.079Z,5.18
2022-12-26T11:31:09.029Z,4.57
2022-12-26T11:33:47.694Z,4.90
2022-12-26T11:36:20.659Z,4.93
2022-12-26T11:38:53.237Z,5.43
2022-12-26T11:41:34.177Z,5.00
2022-12-26T11:44:15.966Z,5.13
2022-12-26T11:47:17.129Z,4.82
2022-12-26T11:50:01.211Z,5.00
2022-12-26T11:52:39.767Z,5.10
2022-12-26T11:55:30.075Z,5.03
2022-12-26T11:57:59.069Z,4.97
2022-12-26T12:00:28.870Z,6.28
2022-12-26T12:02:57.323Z,5.35
2022-12-26T12:05:37.815Z,6.38
2022-12-26T12:08:18.032Z,6.47
2022-12-26T12:11:39.952Z,6.35
2022-12-26T12:14:14.317Z,5.50
2022-12-26T12:17:01.023Z,6.38
2022-12-26T12:19:54.152Z,5.45
2022-12-26T12:22:51.942Z,5.95
2022-12-26T12:25:38.883Z,6.38
2022-12-26T12:28:51.745Z,6.68
2022-12-26T12:31:23.846Z,6.28
2022-12-26T12:34:25.633Z,6.43
2022-12-26T12:37:15.197Z,5.90
2022-12-26T12:39:49.514Z,6.68
2022-12-26T12:42:24.905Z,6.95
2022-12-26T12:45:23.394Z,6.35
2022-12-26T12:47:54.466Z,5.40
2022-12-26T12:50:56.738Z,5.72
2022-12-26T12:53:49.555Z,6.28
2022-12-26T12:56:23.692Z,5.90
2022-12-26T12:59:39.323Z,6.93
2022-12-26T13:02:39.992Z,6.28
2022-12-26T13:05:46.261Z,6.93
2022-12-26T13:08:40.822Z,7.18
2022-12-26T13:11:18.329Z,6.60
2022-12-26T13:14:08.149Z,6.80
2022-12-26T13:16:49.800Z,6.25
2022-12-26T13:19:32.628Z,6.88
2022-12-26T13:22:06.334Z,7.10
2022-12-26T13:24:42.480Z,6.43
2022-12-26T13:27:16.500Z,6.72
2022-12-26T13:29:46.976Z,6.63
2022-12-26T13:32:22.170Z,6.72
2022-12-26T13:34:51.523Z,6.43
2022-12-26T13:37:40.968Z,7.07
2022-12-26T13:40:18.796Z,6.90
2022-12-26T13:43:06.240Z,7.25
2022-12-26T13:46:00.177Z,8.35
2022-12-26T13:48:30.982Z,6.40
2022-12-26T13:51:04.979Z,8.02
2022-12-26T13:53:35.596Z,6.38
2022-12-26T13:56:07.144Z,6.43
2022-12-26T13:59:06.114Z,7.45
2022-12-26T14:01:43.634Z,6.50
2022-12-26T14:04:54.885Z,7.10
2022-12-26T14:07:30.328Z,6.20
2022-12-26T14:10:26.265Z,6.85
2022-12-26T14:13:36.778Z,7.38
2022-12-26T14:16:28.623Z,6.82
2022-12-26T14:19:22.849Z,6.45
2022-12-26T14:24:57.529Z,6.35
2022-12-26T14:27:54.910Z,6.43
2022-12-26T14:30:34.494Z,7.05
2022-12-26T14:33:18.416Z,7.05
2022-12-26T14:38:32.133Z,6.72
2022-12-26T14:41:08.300Z,6.82
2022-12-26T14:43:39.726Z,7.25
2022-12-26T14:46:36.363Z,7.82
2022-12-26T14:49:30.537Z,8.43
2022-12-26T14:52:25.574Z,7.38
2022-12-26T14:54:54.823Z,6.50
2022-12-26T14:57:48.184Z,7.55
2022-12-26T15:00:30.509Z,6.63
2022-12-26T15:03:04.781Z,6.03
2022-12-26T15:05:39.749Z,5.32
2022-12-26T15:08:27.390Z,5.93
2022-12-26T15:11:10.729Z,5.03
2022-12-26T15:13:50.950Z,5.95
2022-12-26T15:16:31.678Z,5.55
2022-12-26T15:19:09.758Z,6.15
2022-12-26T15:22:15.543Z,6.28
2022-12-26T15:27:59.203Z,5.50
2022-12-26T15:31:05.508Z,6.03
2022-12-26T15:33:46.076Z,6.32
2022-12-26T15:36:38.864Z,6.30
2022-12-26T15:39:34.066Z,5.57
2022-12-26T15:42:45.727Z,6.03
2022-12-26T15:45:37.269Z,6.68
2022-12-26T15:48:14.391Z,5.25
2022-12-26T15:51:00.982Z,6.32
2022-12-26T15:53:43.204Z,5.47
2022-12-26T15:56:29.842Z,6.05
2022-12-26T15:59:13.427Z,6.40
2022-12-26T16:01:47.532Z,5.55
2022-12-26T16:04:48.914Z,5.43
2022-12-26T16:08:12.140Z,5.95
2022-12-26T16:10:41.255Z,5.65
2022-12-26T16:13:23.854Z,5.43
2022-12-26T16:15:58.160Z,5.93
2022-12-26T16:18:34.482Z,5.82
2022-12-26T16:21:24.704Z,5.70
2022-12-26T16:23:54.601Z,5.45
2022-12-26T16:26:30.431Z,6.60
2022-12-26T16:29:01.019Z,5.38
2022-12-26T16:31:32.481Z,5.93
2022-12-26T16:34:01.682Z,5.93
2022-12-26T16:36:31.870Z,5.55
2022-12-26T16:39:00.397Z,5.50
2022-12-26T16:41:33.753Z,5.93
2022-12-26T16:44:41.019Z,6.18
2022-12-26T16:47:13.161Z,6.05
2022-12-26T16:49:46.630Z,6.20
2022-12-26T16:52:45.846Z,5.90
2022-12-26T16:55:24.726Z,5.57
2022-12-26T16:57:56.158Z,6.07
2022-12-26T17:00:26.021Z,5.78
2022-12-26T17:02:58.143Z,6.40
2022-12-26T17:05:33.002Z,6.82
2022-12-26T17:08:03.245Z,6.22
2022-12-26T17:10:35.597Z,6.25
2022-12-26T17:13:07.430Z,7.22
2022-12-26T17:15:38.748Z,6.05
2022-12-26T17:18:40.568Z,7.00
2022-12-26T17:21:26.118Z,5.95
2022-12-26T17:24:03.235Z,6.57
2022-12-26T17:26:32.088Z,6.35
2022-12-26T17:29:00.785Z,7.35
2022-12-26T17:31:43.708Z,5.78
2022-12-26T17:34:25.729Z,5.85
2022-12-26T17:39:43.711Z,5.60
2022-12-26T17:42:14.880Z,5.35
2022-12-26T17:44:45.581Z,5.53
2022-12-26T17:47:19.449Z,5.93
2022-12-26T17:49:49.079Z,6.32
2022-12-26T17:52:20.054Z,5.78
2022-12-26T17:54:50.485Z,5.78
2022-12-26T17:57:24.218Z,6.63
2022-12-26T17:59:53.841Z,7.07
2022-12-26T18:02:22.823Z,6.35
2022-12-26T18:04:51.938Z,6.00
2022-12-26T18:07:30.301Z,6.03
2022-12-26T18:10:00.461Z,5.25
2022-12-26T18:12:29.361Z,6.00
2022-12-26T18:15:02.197Z,5.88
2022-12-26T18:17:33.803Z,6.30
2022-12-26T18:20:03.703Z,5.35
2022-12-26T18:22:33.322Z,5.50
2022-12-26T18:25:01.935Z,5.88
2022-12-26T18:27:33.228Z,6.13
2022-12-26T18:30:02.081Z,5.20
2022-12-26T18:32:33.258Z,5.80
2022-12-26T18:35:02.398Z,5.30
2022-12-26T18:37:31.740Z,5.35
2022-12-26T18:40:00.414Z,5.47
2022-12-26T18:42:29.037Z,5.40
2022-12-26T18:44:57.519Z,5.88
2022-12-26T18:47:25.948Z,5.15
2022-12-26T18:49:54.585Z,5.90
2022-12-26T18:52:23.171Z,5.72
2022-12-26T18:54:51.758Z,5.35
2022-12-26T18:57:21.973Z,5.22
2022-12-26T18:59:50.893Z,4.72
2022-12-26T19:02:20.430Z,5.35
2022-12-26T19:04:50.251Z,5.18
2022-12-26T19:07:21.537Z,5.25
2022-12-26T19:09:52.621Z,5.35
2022-12-26T19:12:21.123Z,5.20
2022-12-26T19:14:50.125Z,5.72
2022-12-26T19:17:19.021Z,5.65
2022-12-26T19:19:47.629Z,5.63
2022-12-26T19:22:16.185Z,5.80
2022-12-26T19:24:44.775Z,5.53
2022-12-26T19:27:13.263Z,6.00
2022-12-26T19:29:41.744Z,6.03
2022-12-26T19:32:10.815Z,4.97
2022-12-26T19:34:39.262Z,6.05
2022-12-26T19:37:07.765Z,5.70
2022-12-26T19:39:37.156Z,5.40
2022-12-26T19:42:05.083Z,5.60
2022-12-26T19:44:33.441Z,6.22
2022-12-26T19:47:11.659Z,5.82
2022-12-26T19:49:43.487Z,5.55
2022-12-26T19:52:13.003Z,6.40
2022-12-26T19:54:41.608Z,5.78
2022-12-26T19:57:10.193Z,6.00
2022-12-26T19:59:38.816Z,6.13
2022-12-26T20:02:07.836Z,6.30
2022-12-26T20:04:36.429Z,6.00
2022-12-26T20:07:05.040Z,6.57
2022-12-26T20:09:33.574Z,6.72
2022-12-26T20:12:03.291Z,6.57
2022-12-26T20:14:33.892Z,6.80
2022-12-26T20:17:05.473Z,6.80
2022-12-26T20:19:36.629Z,7.10
2022-12-26T20:22:06.134Z,6.85
2022-12-26T20:24:35.263Z,6.28
2022-12-26T20:27:04.847Z,6.05
2022-12-26T20:29:33.417Z,6.30
2022-12-26T20:32:01.961Z,6.10
2022-12-26T20:34:31.465Z,7.03
2022-12-26T20:36:59.976Z,6.20
2022-12-26T20:39:28.769Z,6.40
2022-12-26T20:41:57.454Z,6.88
2022-12-26T20:44:26.551Z,6.18
2022-12-26T20:46:55.137Z,6.95
2022-12-26T20:49:23.924Z,6.68
2022-12-26T20:51:52.464Z,6.95
2022-12-26T20:54:20.991Z,6.78
2022-12-26T20:56:49.709Z,5.97
2022-12-26T20:59:18.091Z,7.00
2022-12-26T21:01:47.716Z,5.88
2022-12-26T21:04:23.432Z,5.82
2022-12-26T21:06:52.081Z,5.60
2022-12-26T21:09:20.619Z,6.20
2022-12-26T21:11:49.140Z,6.30
2022-12-26T21:14:20.896Z,5.80
2022-12-26T21:16:58.129Z,5.82
2022-12-26T21:19:28.716Z,6.13
2022-12-26T21:21:57.825Z,6.00
2022-12-26T21:24:35.170Z,6.60
2022-12-26T21:27:06.540Z,6.68
2022-12-26T21:29:36.118Z,6.32
2022-12-26T21:32:05.452Z,6.05
2022-12-26T21:34:34.511Z,5.63
2022-12-26T21:37:21.898Z,6.00
2022-12-26T21:39:51.779Z,6.40
2022-12-26T21:42:20.472Z,5.43
2022-12-26T21:44:49.175Z,6.40
2022-12-26T21:47:17.774Z,6.47
2022-12-26T21:49:46.292Z,6.30
2022-12-26T21:52:14.663Z,5.45
2022-12-26T21:55:01.255Z,5.85
2022-12-26T21:57:29.904Z,6.18
2022-12-26T21:59:59.804Z,5.80
2022-12-26T22:02:56.394Z,5.80
2022-12-26T22:05:28.033Z,6.93
2022-12-26T22:08:01.300Z,6.57
2022-12-26T22:10:52.868Z,6.35
2022-12-26T22:13:23.214Z,7.13
2022-12-26T22:16:10.556Z,7.13
2022-12-26T22:18:40.606Z,6.35
2022-12-26T22:21:18.609Z,7.50
2022-12-26T22:23:47.246Z,6.70
2022-12-26T22:26:16.600Z,6.30
2022-12-26T22:28:45.666Z,6.70
2022-12-26T22:31:29.568Z,6.47
2022-12-26T22:36:27.337Z,5.53
2022-12-26T22:38:56.036Z,7.35
2022-12-26T22:41:24.657Z,6.47
2022-12-26T22:43:53.219Z,6.80
2022-12-26T22:46:21.871Z,7.28
2022-12-26T22:48:50.667Z,7.43
2022-12-26T22:51:21.334Z,6.50
2022-12-26T22:53:50.367Z,6.72
2022-12-26T22:56:19.055Z,7.05
2022-12-26T22:58:47.703Z,7.53
2022-12-26T23:01:19.713Z,7.13
2022-12-26T23:03:48.607Z,7.32
2022-12-26T23:06:21.515Z,7.38
2022-12-26T23:08:51.838Z,6.60
2022-12-26T23:11:20.857Z,7.25
2022-12-26T23:13:49.751Z,7.65
2022-12-26T23:16:29.268Z,8.00
2022-12-26T23:19:20.327Z,7.65
2022-12-26T23:21:51.657Z,7.30
2022-12-26T23:24:23.336Z,7.45
2022-12-26T23:26:54.967Z,7.60
2022-12-26T23:29:44.535Z,7.85
2022-12-26T23:32:13.136Z,7.13
2022-12-26T23:34:41.737Z,7.40
2022-12-26T23:37:10.114Z,8.18
2022-12-26T23:39:38.671Z,7.28
2022-12-26T23:42:07.402Z,7.50
2022-12-26T23:44:35.993Z,8.85
2022-12-26T23:47:04.647Z,15.77
2022-12-26T23:49:33.270Z,17.83
2022-12-26T23:52:02.142Z,10.70
2022-12-26T23:54:30.616Z,8.32
2022-12-26T23:56:59.249Z,7.97
2022-12-26T23:59:27.591Z,7.43
